createdAt,value
2022-10-19T00:00:18.499Z,92.40
2022-10-19T00:02:45.240Z,92.40
2022-10-19T00:05:12.015Z,92.40
2022-10-19T00:07:38.928Z,92.40
2022-10-19T00:10:05.964Z,92.50
2022-10-19T00:12:32.610Z,92.50
2022-10-19T00:14:59.636Z,92.50
2022-10-19T00:17:26.325Z,92.50
2022-10-19T00:19:55.210Z,92.50
2022-10-19T00:22:22.069Z,92.50
2022-10-19T00:24:49.112Z,92.50
2022-10-19T00:27:16.517Z,92.60
2022-10-19T00:29:43.714Z,92.60
2022-10-19T00:32:10.596Z,92.60
2022-10-19T00:34:37.240Z,92.60
2022-10-19T00:37:43.651Z,92.70
2022-10-19T00:40:10.477Z,92.70
2022-10-19T00:42:37.208Z,92.70
2022-10-19T00:45:14.252Z,92.70
2022-10-19T00:47:41.384Z,92.70
2022-10-19T00:50:08.376Z,92.80
2022-10-19T00:52:35.404Z,92.80
2022-10-19T00:55:02.364Z,92.80
2022-10-19T00:57:29.582Z,92.80
2022-10-19T00:59:56.360Z,92.80
2022-10-19T01:02:23.097Z,92.80
2022-10-19T01:04:51.792Z,92.80
2022-10-19T01:07:18.737Z,92.90
2022-10-19T01:09:45.631Z,92.90
2022-10-19T01:12:34.156Z,92.90
2022-10-19T01:15:07.024Z,92.90
2022-10-19T01:17:36.917Z,92.90
2022-10-19T01:20:09.710Z,92.90
2022-10-19T01:22:36.733Z,93.00
2022-10-19T01:25:09.299Z,93.00
2022-10-19T01:27:54.941Z,92.90
2022-10-19T01:30:37.379Z,93.00
2022-10-19T01:33:14.176Z,93.00
2022-10-19T01:35:52.529Z,93.00
2022-10-19T01:38:23.852Z,93.00
2022-10-19T01:41:09.368Z,93.00
2022-10-19T01:43:39.080Z,93.00
2022-10-19T01:46:41.351Z,93.00
2022-10-19T01:49:13.222Z,93.00
2022-10-19T01:51:41.658Z,93.10
2022-10-19T01:54:09.726Z,93.00
2022-10-19T01:56:36.331Z,93.10
2022-10-19T01:59:03.704Z,93.10
2022-10-19T02:01:30.867Z,93.10
2022-10-19T02:03:57.628Z,93.20
2022-10-19T02:06:24.286Z,93.20
2022-10-19T02:08:51.708Z,93.20
2022-10-19T02:11:18.904Z,93.30
2022-10-19T02:13:46.243Z,93.30
2022-10-19T02:16:20.681Z,93.30
2022-10-19T02:18:47.796Z,93.40
2022-10-19T02:21:25.288Z,93.40
2022-10-19T02:23:54.189Z,93.40
2022-10-19T02:26:21.098Z,93.40
2022-10-19T02:28:48.054Z,93.40
2022-10-19T02:31:14.686Z,93.40
2022-10-19T02:33:41.414Z,93.40
2022-10-19T02:36:08.151Z,93.50
2022-10-19T02:38:35.044Z,93.50
2022-10-19T02:41:28.132Z,93.50
2022-10-19T02:43:59.214Z,93.50
2022-10-19T02:46:28.134Z,93.50
2022-10-19T02:48:55.037Z,93.50
2022-10-19T02:51:28.917Z,93.40
2022-10-19T02:53:55.686Z,93.40
2022-10-19T02:56:22.961Z,93.40
2022-10-19T02:58:49.783Z,93.40
2022-10-19T03:01:16.590Z,93.50
2022-10-19T03:03:52.522Z,93.50
2022-10-19T03:06:19.318Z,93.50
2022-10-19T03:08:46.285Z,93.50
2022-10-19T03:11:16.076Z,93.50
2022-10-19T03:13:43.433Z,93.60
2022-10-19T03:16:10.679Z,93.60
2022-10-19T03:18:37.571Z,93.60
2022-10-19T03:21:08.762Z,93.80
2022-10-19T03:23:35.827Z,93.70
2022-10-19T03:26:02.790Z,93.80
2022-10-19T03:28:29.486Z,93.80
2022-10-19T03:30:56.523Z,93.80
2022-10-19T03:33:23.296Z,93.70
2022-10-19T03:35:50.057Z,93.70
2022-10-19T03:38:16.937Z,93.80
2022-10-19T03:40:43.540Z,93.80
2022-10-19T03:43:10.251Z,93.80
2022-10-19T03:45:37.123Z,93.80
2022-10-19T03:48:03.965Z,93.90
2022-10-19T03:50:30.688Z,93.80
2022-10-19T03:52:57.505Z,93.80
2022-10-19T03:55:24.374Z,93.80
2022-10-19T03:57:51.218Z,93.80
2022-10-19T04:00:18.005Z,93.90
2022-10-19T04:02:44.715Z,93.90
2022-10-19T04:05:11.396Z,93.90
2022-10-19T04:07:38.093Z,94.20
2022-10-19T04:10:05.115Z,93.90
2022-10-19T04:12:31.791Z,93.90
2022-10-19T04:14:58.505Z,93.90
2022-10-19T04:17:25.471Z,93.90
2022-10-19T04:19:52.099Z,93.90
2022-10-19T04:22:18.728Z,93.90
2022-10-19T04:24:45.482Z,93.90
2022-10-19T04:27:12.246Z,94.00
2022-10-19T04:29:38.911Z,93.90
2022-10-19T04:32:05.671Z,94.00
2022-10-19T04:34:35.173Z,94.00
2022-10-19T04:37:04.393Z,94.00
2022-10-19T04:39:31.110Z,94.00
2022-10-19T04:41:57.998Z,94.00
2022-10-19T04:46:56.481Z,94.10
2022-10-19T04:49:23.156Z,94.10
2022-10-19T04:51:49.867Z,94.10
2022-10-19T04:54:16.763Z,94.10
2022-10-19T04:56:43.433Z,94.10
2022-10-19T04:59:10.115Z,94.20
2022-10-19T05:01:36.984Z,94.20
2022-10-19T05:04:03.758Z,94.10
2022-10-19T05:06:31.023Z,94.20
2022-10-19T05:08:57.758Z,94.30
2022-10-19T05:11:24.402Z,94.30
2022-10-19T05:13:51.236Z,94.30
2022-10-19T05:16:19.033Z,94.30
2022-10-19T05:18:58.971Z,94.30
2022-10-19T05:21:27.187Z,94.40
2022-10-19T05:23:54.198Z,94.40
2022-10-19T05:26:24.404Z,94.40
2022-10-19T05:28:56.243Z,94.40
2022-10-19T05:31:26.986Z,94.40
2022-10-19T05:33:53.799Z,94.40
2022-10-19T05:36:21.453Z,94.50
2022-10-19T05:38:48.901Z,94.50
2022-10-19T05:41:15.904Z,94.50
2022-10-19T05:43:42.617Z,94.50
2022-10-19T05:46:13.122Z,94.50
2022-10-19T05:48:39.851Z,94.60
2022-10-19T05:51:07.061Z,94.60
2022-10-19T05:53:33.797Z,94.60
2022-10-19T05:56:00.959Z,94.60
2022-10-19T05:58:27.715Z,94.70
2022-10-19T06:00:55.118Z,94.70
2022-10-19T06:03:22.155Z,94.70
2022-10-19T06:05:49.502Z,94.80
2022-10-19T06:08:16.670Z,94.70
2022-10-19T06:10:43.519Z,94.70
2022-10-19T06:13:10.306Z,94.80
2022-10-19T06:15:37.105Z,94.80
2022-10-19T06:18:04.238Z,94.80
2022-10-19T06:20:31.174Z,94.90
2022-10-19T06:22:58.117Z,94.90
2022-10-19T06:25:25.058Z,94.90
2022-10-19T06:27:51.898Z,94.90
2022-10-19T06:30:18.742Z,94.80
2022-10-19T06:32:45.532Z,94.80
2022-10-19T06:35:12.523Z,94.90
2022-10-19T06:37:39.156Z,94.90
2022-10-19T06:40:07.246Z,94.90
2022-10-19T06:42:34.160Z,94.90
2022-10-19T06:45:00.811Z,94.90
2022-10-19T06:47:31.519Z,94.90
2022-10-19T06:49:58.535Z,94.80
2022-10-19T06:52:25.347Z,94.90
2022-10-19T06:54:52.149Z,94.80
2022-10-19T06:57:19.065Z,94.80
2022-10-19T06:59:48.039Z,94.80
2022-10-19T07:02:16.930Z,94.80
2022-10-19T07:04:43.783Z,94.90
2022-10-19T07:07:10.724Z,94.90
2022-10-19T07:09:37.482Z,94.90
2022-10-19T07:12:04.249Z,94.90
2022-10-19T07:14:31.627Z,94.90
2022-10-19T07:16:58.302Z,94.90
2022-10-19T07:19:28.175Z,94.90
2022-10-19T07:21:54.899Z,94.90
2022-10-19T07:24:24.769Z,94.90
2022-10-19T07:26:51.471Z,94.90
2022-10-19T07:29:18.218Z,94.90
2022-10-19T07:31:44.889Z,94.90
2022-10-19T07:34:11.822Z,94.90
2022-10-19T07:36:39.777Z,94.80
2022-10-19T07:39:06.921Z,94.80
2022-10-19T07:41:34.675Z,94.80
2022-10-19T07:44:01.380Z,95.10
2022-10-19T07:46:29.276Z,94.80
2022-10-19T07:48:55.942Z,94.80
2022-10-19T07:51:22.707Z,94.80
2022-10-19T07:53:49.824Z,94.70
2022-10-19T07:56:20.800Z,94.70
2022-10-19T07:58:47.496Z,94.70
2022-10-19T08:01:17.958Z,94.70
2022-10-19T08:06:31.805Z,94.60
2022-10-19T08:08:58.593Z,94.50
2022-10-19T08:11:26.181Z,94.40
2022-10-19T08:13:53.135Z,94.40
2022-10-19T08:16:27.229Z,94.30
2022-10-19T08:18:55.949Z,94.20
2022-10-19T08:21:22.864Z,94.10
2022-10-19T08:23:49.705Z,94.00
2022-10-19T08:26:16.726Z,94.00
2022-10-19T08:28:43.415Z,94.00
2022-10-19T08:31:11.043Z,94.00
2022-10-19T08:33:37.694Z,94.00
2022-10-19T08:36:05.355Z,94.00
2022-10-19T08:38:32.159Z,93.90
2022-10-19T08:40:58.841Z,93.80
2022-10-19T08:43:34.897Z,93.80
2022-10-19T08:46:03.472Z,93.70
2022-10-19T08:48:33.017Z,93.60
2022-10-19T08:50:59.982Z,93.60
2022-10-19T08:53:45.205Z,93.60
2022-10-19T08:56:22.207Z,93.60
2022-10-19T08:59:08.610Z,93.40
2022-10-19T09:01:55.436Z,93.30
2022-10-19T09:04:25.310Z,93.30
2022-10-19T09:06:51.977Z,93.20
2022-10-19T09:09:18.753Z,93.20
2022-10-19T09:11:47.239Z,93.30
2022-10-19T09:14:16.396Z,93.20
2022-10-19T09:16:43.107Z,93.20
2022-10-19T09:19:13.814Z,93.10
2022-10-19T09:21:47.634Z,92.90
2022-10-19T09:24:16.128Z,92.90
2022-10-19T09:26:52.610Z,92.90
2022-10-19T09:29:22.211Z,92.90
2022-10-19T09:31:48.897Z,92.90
2022-10-19T09:34:17.336Z,92.90
2022-10-19T09:36:51.738Z,92.80
2022-10-19T09:39:18.642Z,92.80
2022-10-19T09:41:45.942Z,92.80
2022-10-19T09:44:12.621Z,92.80
2022-10-19T09:46:42.462Z,92.50
2022-10-19T09:49:09.133Z,92.50
2022-10-19T09:51:39.778Z,92.50
2022-10-19T09:54:06.505Z,92.40
2022-10-19T09:56:36.062Z,92.40
2022-10-19T09:59:02.784Z,92.20
2022-10-19T10:01:39.982Z,92.20
2022-10-19T10:04:18.922Z,92.00
2022-10-19T10:06:46.761Z,92.00
2022-10-19T10:09:16.949Z,92.00
2022-10-19T10:11:43.839Z,91.90
2022-10-19T10:14:20.679Z,91.80
2022-10-19T10:16:47.419Z,91.70
2022-10-19T10:19:15.115Z,91.80
2022-10-19T10:21:47.832Z,91.80
2022-10-19T10:24:16.313Z,91.70
2022-10-19T10:26:44.130Z,91.60
2022-10-19T10:29:37.448Z,91.60
2022-10-19T10:32:16.811Z,91.60
2022-10-19T10:34:51.317Z,91.60
2022-10-19T10:37:23.404Z,91.40
2022-10-19T10:39:53.828Z,91.40
2022-10-19T10:42:22.619Z,91.30
2022-10-19T10:44:49.569Z,91.20
2022-10-19T10:47:16.827Z,91.20
2022-10-19T10:49:43.630Z,91.10
2022-10-19T10:52:10.905Z,91.20
2022-10-19T10:54:37.542Z,91.20
2022-10-19T10:57:12.256Z,91.10
2022-10-19T10:59:45.467Z,90.90
2022-10-19T11:02:12.514Z,90.80
2022-10-19T11:04:39.981Z,90.80
2022-10-19T11:07:15.438Z,90.80
2022-10-19T11:09:52.864Z,90.80
2022-10-19T11:12:20.397Z,90.60
2022-10-19T11:14:47.228Z,90.40
2022-10-19T11:17:21.512Z,90.50
2022-10-19T11:19:50.223Z,90.40
2022-10-19T11:22:29.094Z,90.30
2022-10-19T11:24:59.019Z,90.40
2022-10-19T11:27:35.254Z,90.30
2022-10-19T11:30:08.830Z,90.30
2022-10-19T11:32:54.100Z,90.60
2022-10-19T11:35:29.977Z,90.30
2022-10-19T11:38:18.205Z,90.40
2022-10-19T11:41:06.097Z,90.50
2022-10-19T11:43:51.836Z,89.90
2022-10-19T11:46:24.353Z,89.80
2022-10-19T11:48:54.769Z,89.50
2022-10-19T11:51:22.431Z,88.80
2022-10-19T11:53:56.501Z,88.40
2022-10-19T11:56:39.223Z,87.80
2022-10-19T11:59:24.623Z,87.40
2022-10-19T12:01:51.367Z,87.40
2022-10-19T12:04:36.856Z,87.10
2022-10-19T12:07:14.446Z,87.10
2022-10-19T12:09:47.455Z,87.50
2022-10-19T12:12:33.422Z,86.90
2022-10-19T12:15:03.458Z,87.20
2022-10-19T12:17:31.381Z,87.20
2022-10-19T12:20:19.001Z,86.70
2022-10-19T12:22:46.730Z,86.10
2022-10-19T12:25:13.745Z,85.70
2022-10-19T12:27:40.663Z,85.40
2022-10-19T12:30:18.664Z,85.90
2022-10-19T12:32:53.418Z,86.10
2022-10-19T12:35:27.720Z,85.60
2022-10-19T12:37:55.887Z,85.20
2022-10-19T12:40:28.399Z,85.50
2022-10-19T12:42:58.258Z,85.70
2022-10-19T12:45:26.491Z,85.70
2022-10-19T12:48:08.762Z,85.10
2022-10-19T12:50:53.759Z,85.10
2022-10-19T12:53:27.842Z,84.50
2022-10-19T12:56:10.056Z,84.60
2022-10-19T12:58:43.638Z,84.10
2022-10-19T13:01:24.574Z,83.70
2022-10-19T13:04:06.137Z,83.30
2022-10-19T13:06:33.555Z,82.50
2022-10-19T13:09:02.315Z,82.00
2022-10-19T13:11:29.145Z,81.40
2022-10-19T13:13:57.363Z,81.70
2022-10-19T13:16:30.097Z,81.10
2022-10-19T13:18:59.942Z,81.00
2022-10-19T13:21:45.253Z,81.40
2022-10-19T13:24:21.191Z,81.20
2022-10-19T13:26:48.120Z,81.40
2022-10-19T13:29:24.666Z,81.50
2022-10-19T13:31:51.570Z,81.60
2022-10-19T13:34:18.254Z,82.00
2022-10-19T13:36:59.058Z,82.10
2022-10-19T13:39:26.944Z,82.50
2022-10-19T13:41:53.860Z,82.50
2022-10-19T13:44:25.163Z,82.40
2022-10-19T13:46:53.748Z,82.50
2022-10-19T13:49:32.783Z,82.90
2022-10-19T13:52:05.663Z,83.20
2022-10-19T13:54:35.437Z,82.70
2022-10-19T13:57:20.466Z,82.20
2022-10-19T13:59:47.163Z,81.90
2022-10-19T14:02:13.785Z,82.00
2022-10-19T14:05:03.469Z,81.70
2022-10-19T14:07:31.417Z,81.00
2022-10-19T14:10:00.682Z,80.60
2022-10-19T14:12:28.343Z,80.40
2022-10-19T14:14:55.039Z,80.50
2022-10-19T14:17:24.535Z,80.60
2022-10-19T14:19:55.306Z,81.10
2022-10-19T14:22:26.089Z,81.20
2022-10-19T14:24:52.759Z,81.50
2022-10-19T14:27:22.559Z,82.10
2022-10-19T14:29:49.847Z,82.50
2022-10-19T14:32:16.790Z,82.60
2022-10-19T14:34:47.114Z,82.90
2022-10-19T14:37:15.838Z,83.30
2022-10-19T14:39:42.482Z,83.50
2022-10-19T14:42:09.799Z,83.80
2022-10-19T14:44:38.635Z,84.00
2022-10-19T14:47:24.376Z,84.20
2022-10-19T14:49:51.182Z,84.20
2022-10-19T14:52:20.183Z,84.30
2022-10-19T14:54:47.625Z,84.50
2022-10-19T14:57:18.877Z,84.50
2022-10-19T14:59:46.756Z,84.40
2022-10-19T15:02:21.277Z,84.40
2022-10-19T15:04:50.891Z,84.30
2022-10-19T15:07:27.184Z,84.20
2022-10-19T15:09:57.982Z,84.10
2022-10-19T15:12:37.665Z,84.30
2022-10-19T15:15:14.398Z,84.30
2022-10-19T15:17:54.827Z,84.20
2022-10-19T15:20:25.982Z,84.00
2022-10-19T15:22:53.000Z,83.90
2022-10-19T15:25:24.021Z,84.20
2022-10-19T15:27:50.991Z,84.40
2022-10-19T15:30:17.730Z,84.90
2022-10-19T15:32:48.393Z,85.30
2022-10-19T15:35:31.443Z,85.60
2022-10-19T15:38:10.958Z,85.90
2022-10-19T15:40:41.376Z,86.10
2022-10-19T15:43:44.170Z,86.40
2022-10-19T15:46:13.568Z,86.40
2022-10-19T15:48:40.647Z,86.70
2022-10-19T15:51:29.039Z,86.90
2022-10-19T15:54:05.773Z,87.10
2022-10-19T15:56:33.551Z,87.10
2022-10-19T15:59:00.827Z,87.30
2022-10-19T16:01:31.429Z,87.40
2022-10-19T16:03:58.398Z,87.60
2022-10-19T16:06:26.263Z,87.90
2022-10-19T16:08:54.242Z,88.00
2022-10-19T16:11:21.987Z,88.20
2022-10-19T16:13:48.824Z,88.30
2022-10-19T16:16:20.480Z,88.40
2022-10-19T16:18:47.525Z,88.50
2022-10-19T16:21:14.224Z,88.70
2022-10-19T16:23:42.163Z,88.70
2022-10-19T16:26:09.301Z,88.90
2022-10-19T16:28:35.888Z,89.60
2022-10-19T16:31:03.061Z,89.20
2022-10-19T16:33:29.717Z,89.40
2022-10-19T16:35:56.415Z,89.50
2022-10-19T16:38:23.149Z,89.60
2022-10-19T16:40:49.977Z,89.70
2022-10-19T16:43:16.791Z,89.80
2022-10-19T16:45:44.182Z,89.80
2022-10-19T16:48:14.148Z,90.00
2022-10-19T16:50:40.953Z,90.00
2022-10-19T16:53:10.424Z,90.00
2022-10-19T16:55:37.799Z,90.10
2022-10-19T16:58:04.765Z,90.10
2022-10-19T17:00:31.786Z,90.10
2022-10-19T17:02:58.442Z,90.20
2022-10-19T17:05:28.497Z,90.20
2022-10-19T17:07:55.181Z,90.30
2022-10-19T17:10:22.105Z,90.40
2022-10-19T17:12:48.908Z,90.30
2022-10-19T17:15:41.322Z,90.40
2022-10-19T17:18:02.331Z,90.40
2022-10-19T17:20:28.915Z,90.50
2022-10-19T17:22:55.755Z,90.50
2022-10-19T17:25:22.439Z,90.60
2022-10-19T17:27:52.416Z,90.60
2022-10-19T17:30:19.086Z,90.60
2022-10-19T17:32:46.035Z,90.60
2022-10-19T17:35:12.998Z,90.70
2022-10-19T17:37:39.963Z,90.80
2022-10-19T17:40:07.424Z,90.90
2022-10-19T17:42:36.628Z,90.90
2022-10-19T17:45:04.126Z,91.10
2022-10-19T17:47:30.835Z,91.10
2022-10-19T17:49:57.596Z,91.10
2022-10-19T17:52:24.511Z,91.20
2022-10-19T17:55:11.079Z,91.20
2022-10-19T17:57:38.293Z,91.20
2022-10-19T18:00:05.923Z,91.20
2022-10-19T18:02:33.289Z,91.20
2022-10-19T18:05:00.009Z,91.20
2022-10-19T18:07:26.774Z,91.20
2022-10-19T18:09:53.675Z,91.30
2022-10-19T18:12:20.655Z,91.30
2022-10-19T18:14:47.280Z,91.40
2022-10-19T18:17:13.886Z,91.40
2022-10-19T18:19:40.653Z,91.50
2022-10-19T18:22:07.927Z,91.50
2022-10-19T18:24:34.743Z,91.50
2022-10-19T18:27:01.425Z,91.50
2022-10-19T18:29:28.512Z,91.60
2022-10-19T18:31:55.389Z,91.60
2022-10-19T18:34:22.797Z,91.60
2022-10-19T18:36:50.077Z,91.60
2022-10-19T18:39:16.803Z,91.60
2022-10-19T18:41:43.668Z,91.60
2022-10-19T18:44:11.623Z,91.60
2022-10-19T18:46:38.478Z,91.70
2022-10-19T18:49:06.809Z,91.80
2022-10-19T18:51:33.746Z,91.80
2022-10-19T18:54:00.403Z,91.70
2022-10-19T18:56:27.373Z,91.70
2022-10-19T18:58:54.125Z,91.70
2022-10-19T19:01:25.121Z,91.70
2022-10-19T19:03:52.391Z,91.70
2022-10-19T19:06:22.203Z,91.70
2022-10-19T19:08:48.909Z,91.80
2022-10-19T19:11:19.498Z,91.80
2022-10-19T19:13:50.509Z,91.80
2022-10-19T19:16:17.561Z,91.80
2022-10-19T19:18:47.300Z,92.20
2022-10-19T19:21:35.638Z,91.90
2022-10-19T19:24:03.157Z,91.90
2022-10-19T19:26:30.680Z,92.00
2022-10-19T19:28:57.889Z,92.00
2022-10-19T19:31:24.519Z,92.00
2022-10-19T19:33:51.177Z,92.00
2022-10-19T19:36:18.151Z,92.10
2022-10-19T19:38:45.200Z,92.10
2022-10-19T19:41:12.594Z,92.20
2022-10-19T19:43:39.362Z,92.20
2022-10-19T19:46:09.374Z,92.20
2022-10-19T19:48:36.697Z,92.20
2022-10-19T19:51:03.490Z,92.20
2022-10-19T19:53:30.299Z,92.20
2022-10-19T19:55:58.355Z,92.20
2022-10-19T19:58:25.098Z,92.20
2022-10-19T20:00:51.770Z,92.30
2022-10-19T20:03:18.480Z,92.30
2022-10-19T20:05:45.326Z,92.20
2022-10-19T20:08:12.072Z,92.30
2022-10-19T20:10:39.319Z,92.70
2022-10-19T20:13:05.974Z,92.20
2022-10-19T20:15:32.997Z,92.20
2022-10-19T20:18:02.804Z,92.30
2022-10-19T20:20:29.593Z,92.30
2022-10-19T20:22:56.886Z,92.30
2022-10-19T20:25:23.508Z,92.30
2022-10-19T20:27:50.340Z,92.30
2022-10-19T20:30:17.173Z,92.30
2022-10-19T20:32:44.068Z,92.30
2022-10-19T20:35:10.859Z,92.30
2022-10-19T20:37:37.837Z,92.30
2022-10-19T20:40:08.557Z,92.30
2022-10-19T20:42:36.148Z,92.30
2022-10-19T20:45:03.395Z,92.30
2022-10-19T20:47:30.266Z,92.30
2022-10-19T20:49:57.089Z,92.40
2022-10-19T20:52:23.814Z,92.30
2022-10-19T20:54:50.695Z,92.40
2022-10-19T20:57:17.411Z,92.40
2022-10-19T20:59:45.677Z,92.50
2022-10-19T21:02:15.440Z,92.40
2022-10-19T21:04:42.238Z,92.50
2022-10-19T21:07:08.926Z,92.50
2022-10-19T21:09:35.900Z,92.50
2022-10-19T21:12:02.569Z,92.50
2022-10-19T21:14:29.461Z,92.60
2022-10-19T21:16:58.970Z,92.60
2022-10-19T21:19:26.048Z,92.60
2022-10-19T21:21:55.649Z,92.60
2022-10-19T21:24:26.272Z,92.60
2022-10-19T21:26:53.154Z,92.70
2022-10-19T21:29:19.922Z,92.70
2022-10-19T21:31:48.793Z,92.70
2022-10-19T21:34:16.818Z,92.70
2022-10-19T21:36:43.646Z,92.70
2022-10-19T21:39:10.491Z,92.70
2022-10-19T21:41:37.326Z,92.70
2022-10-19T21:44:04.210Z,92.70
2022-10-19T21:46:30.906Z,92.70
2022-10-19T21:48:57.720Z,92.70
2022-10-19T21:51:35.162Z,92.70
2022-10-19T21:54:02.579Z,92.70
2022-10-19T21:56:29.284Z,92.70
2022-10-19T21:58:56.032Z,92.70
2022-10-19T22:01:23.482Z,92.70
2022-10-19T22:03:50.546Z,92.70
2022-10-19T22:06:17.252Z,92.80
2022-10-19T22:08:44.699Z,92.80
2022-10-19T22:11:11.999Z,92.80
2022-10-19T22:13:38.878Z,92.80
2022-10-19T22:16:05.635Z,92.80
2022-10-19T22:18:32.855Z,92.80
2022-10-19T22:21:03.701Z,92.80
2022-10-19T22:23:30.412Z,92.80
2022-10-19T22:25:57.203Z,92.80
2022-10-19T22:28:24.200Z,92.80
2022-10-19T22:30:54.508Z,92.80
2022-10-19T22:33:21.134Z,92.90
2022-10-19T22:35:54.923Z,92.90
2022-10-19T22:38:21.608Z,92.90
2022-10-19T22:40:48.360Z,92.90
2022-10-19T22:43:15.034Z,93.00
2022-10-19T22:45:41.781Z,92.90
2022-10-19T22:48:08.406Z,92.90
2022-10-19T22:50:35.150Z,92.90
2022-10-19T22:53:01.905Z,92.90
2022-10-19T22:55:28.567Z,92.90
2022-10-19T22:57:55.278Z,93.00
2022-10-19T23:00:21.933Z,93.00
2022-10-19T23:02:48.643Z,93.00
2022-10-19T23:05:15.347Z,93.00
2022-10-19T23:07:42.162Z,93.00
2022-10-19T23:10:08.990Z,93.00
2022-10-19T23:12:35.680Z,93.00
2022-10-19T23:15:02.855Z,93.00
2022-10-19T23:17:29.571Z,93.00
2022-10-19T23:19:56.446Z,93.00
2022-10-19T23:22:23.157Z,93.00
2022-10-19T23:24:49.900Z,93.00
2022-10-19T23:27:16.523Z,93.10
2022-10-19T23:29:43.207Z,93.10
2022-10-19T23:32:09.942Z,93.10
2022-10-19T23:34:36.634Z,93.10
2022-10-19T23:37:03.527Z,93.20
2022-10-19T23:39:30.295Z,93.10
2022-10-19T23:41:57.123Z,93.10
2022-10-19T23:44:23.750Z,93.10
2022-10-19T23:46:50.568Z,93.20
2022-10-19T23:49:17.392Z,93.20
2022-10-19T23:51:53.479Z,93.20
2022-10-19T23:54:20.127Z,93.30
2022-10-19T23:56:46.868Z,93.30
2022-10-19T23:59:13.531Z,93.30
